createdAt,value
2018-03-22T00:00:40.630Z,100008.21
2018-03-22T00:03:09.114Z,100030.31
2018-03-22T00:05:37.687Z,100028.55
2018-03-22T00:08:06.174Z,100026.55
2018-03-22T00:10:34.678Z,100019.30
2018-03-22T00:13:03.146Z,100015.80
2018-03-22T00:15:31.658Z,100011.05
2018-03-22T00:18:00.118Z,99992.06
2018-03-22T00:20:28.574Z,99999.22
2018-03-22T00:22:57.066Z,100007.17
2018-03-22T00:25:25.526Z,100006.36
2018-03-22T00:27:54.026Z,99997.97
2018-03-22T00:30:22.487Z,99997.17
2018-03-22T00:32:50.986Z,99993.30
2018-03-22T00:35:19.483Z,99999.84
2018-03-22T00:37:47.986Z,100001.09
2018-03-22T00:40:16.446Z,100022.36
2018-03-22T00:42:44.911Z,100037.20
2018-03-22T00:45:13.418Z,100035.77
2018-03-22T00:47:41.884Z,100037.14
2018-03-22T00:50:10.351Z,100031.91
2018-03-22T00:52:38.864Z,100032.56
2018-03-22T00:55:07.323Z,100020.71
2018-03-22T00:57:35.838Z,100023.84
2018-03-22T01:00:04.379Z,100038.27
2018-03-22T01:02:32.902Z,100028.62
2018-03-22T01:05:01.363Z,100034.86
2018-03-22T01:07:29.870Z,100029.86
2018-03-22T01:09:58.383Z,100038.80
2018-03-22T01:12:26.889Z,100033.11
2018-03-22T01:14:55.408Z,100023.11
2018-03-22T01:17:23.874Z,100038.80
2018-03-22T01:19:52.387Z,100032.99
2018-03-22T01:22:20.845Z,100020.55
2018-03-22T01:24:49.358Z,100017.33
2018-03-22T01:27:17.883Z,100013.99
2018-03-22T01:29:46.357Z,100015.95
2018-03-22T01:32:14.907Z,100004.42
2018-03-22T01:34:43.410Z,100030.17
2018-03-22T01:37:11.907Z,100020.83
2018-03-22T01:39:40.426Z,100036.13
2018-03-22T01:42:08.929Z,100033.44
2018-03-22T01:44:37.400Z,100042.16
2018-03-22T01:47:05.914Z,100039.98
2018-03-22T01:49:34.386Z,100048.22
2018-03-22T01:52:02.893Z,100054.61
2018-03-22T01:54:31.353Z,100050.05
2018-03-22T01:56:59.877Z,100047.51
2018-03-22T01:59:28.382Z,100048.52
2018-03-22T02:01:56.894Z,100039.61
2018-03-22T02:04:25.404Z,100042.98
2018-03-22T02:06:53.865Z,100051.70
2018-03-22T02:09:22.366Z,100061.02
2018-03-22T02:11:50.844Z,100049.52
2018-03-22T02:14:19.396Z,100053.25
2018-03-22T02:16:47.870Z,100038.75
2018-03-22T02:19:16.434Z,100050.55
2018-03-22T02:21:44.970Z,100045.48
2018-03-22T02:24:13.477Z,100031.53
2018-03-22T02:26:41.946Z,100047.69
2018-03-22T02:29:10.447Z,100042.23
2018-03-22T02:31:38.908Z,100032.88
2018-03-22T02:34:07.434Z,100055.31
2018-03-22T02:36:35.963Z,100053.56
2018-03-22T02:39:04.519Z,100042.93
2018-03-22T02:41:33.004Z,100042.00
2018-03-22T02:44:01.514Z,100040.23
2018-03-22T02:46:29.979Z,100031.61
2018-03-22T02:48:58.450Z,100032.41
2018-03-22T02:51:26.970Z,100030.47
2018-03-22T02:53:55.482Z,100030.13
2018-03-22T02:56:23.985Z,100044.19
2018-03-22T02:58:52.459Z,100049.70
2018-03-22T03:01:21.008Z,100058.05
2018-03-22T03:03:49.475Z,100057.69
2018-03-22T03:06:17.977Z,100064.37
2018-03-22T03:08:46.498Z,100060.36
2018-03-22T03:11:15.006Z,100075.41
2018-03-22T03:13:43.500Z,100084.96
2018-03-22T03:16:12.065Z,100103.60
2018-03-22T03:18:40.574Z,100099.67
2018-03-22T03:21:09.100Z,100084.57
2018-03-22T03:23:37.632Z,100083.22
2018-03-22T03:26:06.102Z,100089.00
2018-03-22T03:28:34.571Z,100073.78
2018-03-22T03:31:03.087Z,100088.50
2018-03-22T03:33:31.570Z,100098.44
2018-03-22T03:36:00.038Z,100101.32
2018-03-22T03:38:28.558Z,100107.88
2018-03-22T03:40:57.022Z,100114.39
2018-03-22T03:43:25.542Z,100106.11
2018-03-22T03:45:54.014Z,100116.99
2018-03-22T03:48:22.522Z,100116.23
2018-03-22T03:50:51.030Z,100096.08
2018-03-22T03:53:19.526Z,100107.56
2018-03-22T03:55:48.026Z,100094.98
2018-03-22T03:58:16.498Z,100103.70
2018-03-22T04:00:45.024Z,100111.23
2018-03-22T04:03:13.499Z,100115.27
2018-03-22T04:05:41.995Z,100120.27
2018-03-22T04:08:10.495Z,100119.11
2018-03-22T04:10:38.969Z,100124.25
2018-03-22T04:13:07.470Z,100115.45
2018-03-22T04:15:35.935Z,100114.46
2018-03-22T04:18:04.456Z,100126.21
2018-03-22T04:20:32.966Z,100113.43
2018-03-22T04:23:01.431Z,100113.64
2018-03-22T04:25:29.934Z,100121.75
2018-03-22T04:27:58.446Z,100102.60
2018-03-22T04:30:26.942Z,100093.16
2018-03-22T04:32:55.456Z,100107.79
2018-03-22T04:35:23.965Z,100102.39
2018-03-22T04:37:52.471Z,100116.06
2018-03-22T04:40:20.956Z,100131.58
2018-03-22T04:42:49.504Z,100130.89
2018-03-22T04:45:18.006Z,100110.95
2018-03-22T04:47:46.514Z,100122.13
2018-03-22T04:50:15.042Z,100116.69
2018-03-22T04:52:43.522Z,100117.64
2018-03-22T04:55:11.987Z,100125.63
2018-03-22T04:57:40.493Z,100130.59
2018-03-22T05:00:08.980Z,100128.42
2018-03-22T05:02:37.503Z,100109.30
2018-03-22T05:05:06.006Z,100116.47
2018-03-22T05:07:35.146Z,100114.64
2018-03-22T05:10:03.669Z,100122.34
2018-03-22T05:12:32.174Z,100114.73
2018-03-22T05:15:00.632Z,100116.52
2018-03-22T05:17:29.133Z,100128.07
2018-03-22T05:19:57.634Z,100127.73
2018-03-22T05:22:26.134Z,100131.55
2018-03-22T05:24:54.639Z,100137.09
2018-03-22T05:27:23.148Z,100143.77
2018-03-22T05:29:51.622Z,100146.04
2018-03-22T05:32:20.148Z,100150.81
2018-03-22T05:34:48.614Z,100148.03
2018-03-22T05:37:17.074Z,100149.13
2018-03-22T05:39:45.610Z,100147.75
2018-03-22T05:42:14.083Z,100153.02
2018-03-22T05:44:42.599Z,100154.66
2018-03-22T05:47:11.109Z,100150.00
2018-03-22T05:49:39.630Z,100146.28
2018-03-22T05:52:08.094Z,100153.09
2018-03-22T05:54:36.614Z,100131.23
2018-03-22T05:57:05.077Z,100150.50
2018-03-22T05:59:33.551Z,100141.50
2018-03-22T06:02:02.023Z,100151.34
2018-03-22T06:04:30.494Z,100161.93
2018-03-22T06:06:58.994Z,100147.88
2018-03-22T06:09:27.516Z,100154.38
2018-03-22T06:11:56.033Z,100141.67
2018-03-22T06:14:24.559Z,100147.91
2018-03-22T06:16:53.083Z,100156.58
2018-03-22T06:19:21.546Z,100172.56
2018-03-22T06:21:50.332Z,100167.13
2018-03-22T06:24:18.875Z,100174.98
2018-03-22T06:26:47.402Z,100176.41
2018-03-22T06:29:15.906Z,100183.80
2018-03-22T06:31:44.402Z,100170.98
2018-03-22T06:34:12.914Z,100167.13
2018-03-22T06:36:41.384Z,100179.14
2018-03-22T06:39:09.894Z,100167.11
2018-03-22T06:41:38.358Z,100163.38
2018-03-22T06:44:06.943Z,100173.23
2018-03-22T06:46:35.408Z,100171.15
2018-03-22T06:49:03.879Z,100177.73
2018-03-22T06:51:32.401Z,100188.95
2018-03-22T06:54:00.866Z,100178.09
2018-03-22T06:56:29.343Z,100189.15
2018-03-22T06:58:57.852Z,100190.08
2018-03-22T07:01:26.333Z,100193.76
2018-03-22T07:03:54.862Z,100198.62
2018-03-22T07:06:23.315Z,100195.53
2018-03-22T07:08:51.814Z,100204.95
2018-03-22T07:11:20.269Z,100203.03
2018-03-22T07:13:48.733Z,100202.50
2018-03-22T07:16:17.389Z,100203.80
2018-03-22T07:18:45.891Z,100206.30
2018-03-22T07:21:14.346Z,100195.59
2018-03-22T07:23:42.849Z,100196.63
2018-03-22T07:26:11.306Z,100202.35
2018-03-22T07:28:39.794Z,100173.88
2018-03-22T07:31:08.302Z,100189.86
2018-03-22T07:33:36.846Z,100194.62
2018-03-22T07:36:05.343Z,100190.95
2018-03-22T07:38:33.798Z,100184.84
2018-03-22T07:41:02.298Z,100189.42
2018-03-22T07:43:36.382Z,100186.25
2018-03-22T07:46:04.920Z,100190.89
2018-03-22T07:48:33.431Z,100166.35
2018-03-22T07:51:01.896Z,100197.52
2018-03-22T07:53:30.402Z,100193.30
2018-03-22T07:55:58.890Z,100201.36
2018-03-22T07:58:27.383Z,100191.36
2018-03-22T08:00:55.887Z,100192.17
2018-03-22T08:03:24.345Z,100199.28
2018-03-22T08:05:52.858Z,100170.20
2018-03-22T08:08:21.349Z,100201.97
2018-03-22T08:10:49.871Z,100198.33
2018-03-22T08:13:18.446Z,100193.91
2018-03-22T08:15:46.915Z,100191.91
2018-03-22T08:18:15.422Z,100174.93
2018-03-22T08:20:43.877Z,100196.03
2018-03-22T08:23:12.395Z,100187.69
2018-03-22T08:25:40.858Z,100183.81
2018-03-22T08:28:09.333Z,100171.30
2018-03-22T08:30:37.920Z,100150.53
2018-03-22T08:33:06.495Z,100169.10
2018-03-22T08:35:34.994Z,100162.54
2018-03-22T08:38:03.498Z,100151.27
2018-03-22T08:40:32.002Z,100165.66
2018-03-22T08:43:00.470Z,100158.11
2018-03-22T08:45:28.995Z,100156.97
2018-03-22T08:47:57.493Z,100161.44
2018-03-22T08:50:25.954Z,100158.72
2018-03-22T08:52:54.456Z,100153.91
2018-03-22T08:55:22.977Z,100145.73
2018-03-22T08:57:51.450Z,100141.81
2018-03-22T09:00:19.967Z,100122.94
2018-03-22T09:02:48.478Z,100126.13
2018-03-22T09:05:16.998Z,100127.65
2018-03-22T09:07:45.478Z,100137.00
2018-03-22T09:10:13.995Z,100006.49
2018-03-22T09:12:42.478Z,100125.13
2018-03-22T09:15:10.990Z,100125.45
2018-03-22T09:17:39.484Z,100127.29
2018-03-22T09:20:07.976Z,100098.95
2018-03-22T09:22:36.537Z,100112.23
2018-03-22T09:25:05.038Z,100112.69
2018-03-22T09:27:33.514Z,100102.16
2018-03-22T09:30:02.018Z,100115.53
2018-03-22T09:32:30.502Z,100109.41
2018-03-22T09:34:58.998Z,100108.53
2018-03-22T09:37:27.495Z,100104.05
2018-03-22T09:39:55.962Z,100091.41
2018-03-22T09:42:24.446Z,100078.00
2018-03-22T09:44:52.952Z,100077.36
2018-03-22T09:47:21.450Z,100073.07
2018-03-22T09:49:50.919Z,100078.09
2018-03-22T09:52:19.438Z,100051.93
2018-03-22T09:54:47.891Z,100054.75
2018-03-22T09:57:16.466Z,100048.73
2018-03-22T09:59:44.946Z,100047.34
2018-03-22T10:02:13.447Z,100046.47
2018-03-22T10:04:41.906Z,100041.05
2018-03-22T10:07:10.379Z,100035.61
2018-03-22T10:09:38.869Z,100037.42
2018-03-22T10:12:07.318Z,100033.05
2018-03-22T10:14:35.895Z,100014.64
2018-03-22T10:17:04.404Z,99995.27
2018-03-22T10:19:32.863Z,100007.58
2018-03-22T10:22:01.359Z,99989.95
2018-03-22T10:24:29.821Z,99990.19
2018-03-22T10:26:58.320Z,99990.08
2018-03-22T10:29:26.824Z,100000.79
2018-03-22T10:31:55.292Z,99996.89
2018-03-22T10:34:23.810Z,100000.19
2018-03-22T10:36:52.269Z,99981.62
2018-03-22T10:39:20.786Z,100000.47
2018-03-22T10:41:49.279Z,99982.93
2018-03-22T10:44:17.810Z,99990.17
2018-03-22T10:46:46.296Z,99977.36
2018-03-22T10:49:14.813Z,99991.67
2018-03-22T10:51:43.294Z,99993.37
2018-03-22T10:54:11.785Z,99989.83
2018-03-22T10:56:40.239Z,99994.46
2018-03-22T10:59:08.738Z,100000.47
2018-03-22T11:01:42.633Z,99991.78
2018-03-22T11:04:11.127Z,99989.41
2018-03-22T11:06:39.664Z,100016.59
2018-03-22T11:09:08.127Z,99998.00
2018-03-22T11:11:36.632Z,100008.27
2018-03-22T11:14:05.111Z,100003.37
2018-03-22T11:16:33.602Z,99991.12
2018-03-22T11:19:02.085Z,99997.16
2018-03-22T11:21:30.574Z,99997.46
2018-03-22T11:23:59.033Z,99990.00
2018-03-22T11:26:27.518Z,99984.16
2018-03-22T11:28:55.981Z,99986.97
2018-03-22T11:31:24.477Z,99970.11
2018-03-22T11:33:53.000Z,99964.78
2018-03-22T11:36:21.452Z,99958.42
2018-03-22T11:38:50.268Z,99951.38
2018-03-22T11:41:18.771Z,99955.38
2018-03-22T11:43:47.283Z,99956.20
2018-03-22T11:46:15.775Z,99956.78
2018-03-22T11:48:44.232Z,99956.78
2018-03-22T11:51:12.753Z,99951.41
2018-03-22T11:53:41.277Z,99949.43
2018-03-22T11:56:09.715Z,99938.42
2018-03-22T11:58:38.226Z,99942.19
2018-03-22T12:01:06.679Z,99943.78
2018-03-22T12:03:35.210Z,99934.50
2018-03-22T12:06:03.721Z,99931.53
2018-03-22T12:08:32.191Z,99932.97
2018-03-22T12:11:00.754Z,99922.59
2018-03-22T12:13:29.319Z,99934.25
2018-03-22T12:15:57.851Z,99923.19
2018-03-22T12:18:26.327Z,99917.28
2018-03-22T12:20:54.790Z,99912.22
2018-03-22T12:23:23.296Z,99903.92
2018-03-22T12:25:51.762Z,99894.36
2018-03-22T12:28:20.254Z,99881.12
2018-03-22T12:30:48.780Z,99875.50
2018-03-22T12:33:17.239Z,99878.83
2018-03-22T12:35:45.742Z,99883.19
2018-03-22T12:38:14.260Z,99874.93
2018-03-22T12:40:42.723Z,99878.19
2018-03-22T12:43:11.247Z,99887.17
2018-03-22T12:45:39.781Z,99879.65
2018-03-22T12:48:09.089Z,99883.08
2018-03-22T12:50:37.570Z,99887.46
2018-03-22T12:53:06.074Z,99891.56
2018-03-22T12:55:34.630Z,99900.73
2018-03-22T12:58:03.102Z,99885.16
2018-03-22T13:00:31.644Z,99885.19
2018-03-22T13:03:00.114Z,99880.81
2018-03-22T13:05:29.253Z,99880.70
2018-03-22T13:07:57.714Z,99876.38
2018-03-22T13:10:26.214Z,99867.80
2018-03-22T13:12:54.688Z,99871.84
2018-03-22T13:15:23.204Z,99859.77
2018-03-22T13:17:51.653Z,99857.75
2018-03-22T13:20:20.159Z,99834.62
2018-03-22T13:22:48.643Z,99811.35
2018-03-22T13:25:17.130Z,99805.22
2018-03-22T13:27:45.618Z,99791.47
2018-03-22T13:30:14.120Z,99794.56
2018-03-22T13:32:42.654Z,99790.70
2018-03-22T13:35:11.110Z,99789.38
2018-03-22T13:37:39.602Z,99807.44
2018-03-22T13:40:08.066Z,99799.52
2018-03-22T13:42:36.611Z,99793.86
2018-03-22T13:45:05.127Z,99806.38
2018-03-22T13:47:33.587Z,99798.92
2018-03-22T13:50:02.094Z,99819.94
2018-03-22T13:52:30.564Z,99812.31
2018-03-22T13:54:59.152Z,99814.48
2018-03-22T13:57:28.604Z,99805.98
2018-03-22T13:59:57.073Z,99796.23
2018-03-22T14:02:25.556Z,99797.28
2018-03-22T14:04:54.069Z,99770.06
2018-03-22T14:07:22.538Z,99778.45
2018-03-22T14:09:51.051Z,99791.52
2018-03-22T14:12:19.538Z,99788.70
2018-03-22T14:14:48.027Z,99791.57
2018-03-22T14:17:16.550Z,99780.98
2018-03-22T14:19:45.044Z,99783.89
2018-03-22T14:22:13.583Z,99747.10
2018-03-22T14:24:42.059Z,99764.87
2018-03-22T14:27:10.540Z,99764.84
2018-03-22T14:29:39.045Z,99745.22
2018-03-22T14:32:07.583Z,99760.31
2018-03-22T14:34:36.115Z,99747.08
2018-03-22T14:37:04.615Z,99740.38
2018-03-22T14:39:33.184Z,99748.20
2018-03-22T14:42:01.740Z,99758.09
2018-03-22T14:44:30.218Z,99737.52
2018-03-22T14:46:58.685Z,99750.59
2018-03-22T14:49:27.259Z,99719.88
2018-03-22T14:51:55.745Z,99740.33
2018-03-22T14:54:24.299Z,99745.17
2018-03-22T14:56:52.755Z,99732.94
2018-03-22T14:59:21.220Z,99736.80
2018-03-22T15:01:49.716Z,99701.70
2018-03-22T15:04:18.191Z,99711.84
2018-03-22T15:06:46.686Z,99699.75
2018-03-22T15:09:15.143Z,99698.39
2018-03-22T15:11:43.668Z,99708.73
2018-03-22T15:14:12.130Z,99699.47
2018-03-22T15:16:40.581Z,99693.23
2018-03-22T15:19:09.101Z,99689.92
2018-03-22T15:21:37.582Z,99697.44
2018-03-22T15:24:06.051Z,99694.47
2018-03-22T15:26:34.563Z,99682.41
2018-03-22T15:29:03.022Z,99683.46
2018-03-22T15:31:31.518Z,99681.02
2018-03-22T15:33:59.978Z,99680.58
2018-03-22T15:36:28.503Z,99662.63
2018-03-22T15:38:57.046Z,99687.28
2018-03-22T15:41:25.551Z,99683.39
2018-03-22T15:43:54.006Z,99679.93
2018-03-22T15:46:22.517Z,99684.53
2018-03-22T15:48:50.988Z,99686.75
2018-03-22T15:51:19.510Z,99686.67
2018-03-22T15:53:47.981Z,99698.92
2018-03-22T15:56:16.446Z,99703.13
2018-03-22T15:58:44.942Z,99692.67
2018-03-22T16:01:13.406Z,99704.77
2018-03-22T16:03:41.898Z,99699.98
2018-03-22T16:06:10.394Z,99700.83
2018-03-22T16:08:38.894Z,99692.08
2018-03-22T16:11:07.434Z,99693.98
2018-03-22T16:13:35.939Z,99677.67
2018-03-22T16:16:04.451Z,99706.03
2018-03-22T16:18:32.992Z,99693.02
2018-03-22T16:21:01.471Z,99671.72
2018-03-22T16:23:29.944Z,99682.66
2018-03-22T16:25:58.434Z,99684.52
2018-03-22T16:28:26.890Z,99680.45
2018-03-22T16:30:55.361Z,99686.67
2018-03-22T16:33:23.842Z,99672.08
2018-03-22T16:35:52.402Z,99663.33
2018-03-22T16:38:20.874Z,99657.92
2018-03-22T16:40:49.374Z,99663.20
2018-03-22T16:43:17.893Z,99654.83
2018-03-22T16:45:46.390Z,99665.95
2018-03-22T16:48:14.870Z,99670.64
2018-03-22T16:50:43.383Z,99664.72
2018-03-22T16:53:11.850Z,99648.38
2018-03-22T16:55:40.318Z,99648.71
2018-03-22T16:58:08.814Z,99653.98
2018-03-22T17:00:37.288Z,99645.63
2018-03-22T17:03:05.802Z,99617.09
2018-03-22T17:05:34.267Z,99625.12
2018-03-22T17:08:02.926Z,99623.03
2018-03-22T17:10:31.377Z,99613.61
2018-03-22T17:12:59.830Z,99605.02
2018-03-22T17:15:28.331Z,99595.75
2018-03-22T17:17:56.800Z,99611.34
2018-03-22T17:20:25.294Z,99601.09
2018-03-22T17:22:53.748Z,99602.71
2018-03-22T17:25:22.239Z,99616.75
2018-03-22T17:27:50.712Z,99611.25
2018-03-22T17:30:19.230Z,99601.27
2018-03-22T17:32:47.688Z,99614.16
2018-03-22T17:35:16.199Z,99602.50
2018-03-22T17:37:44.658Z,99605.80
2018-03-22T17:40:13.109Z,99640.71
2018-03-22T17:42:41.613Z,99633.89
2018-03-22T17:45:10.073Z,99615.39
2018-03-22T17:47:38.567Z,99599.75
2018-03-22T17:50:07.022Z,99590.84
2018-03-22T17:52:35.518Z,99608.94
2018-03-22T17:55:04.016Z,99637.27
2018-03-22T17:57:32.573Z,99641.28
2018-03-22T18:00:01.047Z,99630.98
2018-03-22T18:02:30.244Z,99611.05
2018-03-22T18:04:58.738Z,99589.70
2018-03-22T18:07:27.191Z,99569.73
2018-03-22T18:09:55.686Z,99557.58
2018-03-22T18:12:24.212Z,99555.90
2018-03-22T18:14:52.670Z,99550.71
2018-03-22T18:17:21.168Z,99539.64
2018-03-22T18:19:49.631Z,99528.73
2018-03-22T18:22:18.134Z,99522.84
2018-03-22T18:24:46.622Z,99504.34
2018-03-22T18:27:15.125Z,99487.95
2018-03-22T18:29:43.599Z,99481.61
2018-03-22T18:32:12.066Z,99478.12
2018-03-22T18:34:40.598Z,99468.81
2018-03-22T18:37:09.086Z,99467.88
2018-03-22T18:39:37.586Z,99487.23
2018-03-22T18:42:06.042Z,99489.58
2018-03-22T18:44:34.560Z,99479.50
2018-03-22T18:47:03.032Z,99488.06
2018-03-22T18:49:31.489Z,99508.53
2018-03-22T18:51:59.978Z,99511.21
2018-03-22T18:54:28.426Z,99503.06
2018-03-22T18:56:56.914Z,99504.81
2018-03-22T18:59:25.393Z,99506.61
2018-03-22T19:01:53.838Z,99514.05
2018-03-22T19:04:22.326Z,99537.30
2018-03-22T19:06:50.814Z,99534.22
2018-03-22T19:09:19.290Z,99540.10
2018-03-22T19:11:47.790Z,99547.72
2018-03-22T19:14:16.270Z,99527.91
2018-03-22T19:16:44.731Z,99513.94
2018-03-22T19:19:13.186Z,99495.03
2018-03-22T19:21:41.738Z,99477.13
2018-03-22T19:24:10.166Z,99472.70
2018-03-22T19:26:38.657Z,99444.16
2018-03-22T19:29:07.146Z,99453.02
2018-03-22T19:31:35.644Z,99411.71
2018-03-22T19:34:04.131Z,99412.34
2018-03-22T19:36:32.640Z,99395.66
2018-03-22T19:39:01.097Z,99385.62
2018-03-22T19:41:29.606Z,99368.34
2018-03-22T19:43:58.051Z,99359.63
2018-03-22T19:46:26.538Z,99358.97
2018-03-22T19:48:54.977Z,99341.59
2018-03-22T19:51:23.458Z,99330.62
2018-03-22T19:53:51.900Z,99339.68
2018-03-22T19:56:20.402Z,99332.14
2018-03-22T19:58:48.863Z,99314.41
2018-03-22T20:01:17.322Z,99332.97
2018-03-22T20:03:45.810Z,99333.47
2018-03-22T20:06:14.303Z,99327.20
2018-03-22T20:08:42.794Z,99316.81
2018-03-22T20:11:11.297Z,99325.88
2018-03-22T20:13:39.795Z,99316.69
2018-03-22T20:16:08.274Z,99303.55
2018-03-22T20:18:36.774Z,99292.10
2018-03-22T20:21:05.262Z,99307.74
2018-03-22T20:23:33.768Z,99308.32
2018-03-22T20:26:02.262Z,99326.98
2018-03-22T20:28:30.746Z,99310.40
2018-03-22T20:30:59.194Z,99307.73
2018-03-22T20:33:27.719Z,99287.86
2018-03-22T20:35:56.170Z,99262.66
2018-03-22T20:38:24.622Z,99249.76
2018-03-22T20:40:53.136Z,99230.22
2018-03-22T20:43:21.594Z,99233.01
2018-03-22T20:45:50.085Z,99231.41
2018-03-22T20:48:18.574Z,99237.78
2018-03-22T20:50:47.053Z,99249.48
2018-03-22T20:53:15.529Z,99248.01
2018-03-22T20:55:43.974Z,99256.16
2018-03-22T20:58:12.487Z,99275.28
2018-03-22T21:00:41.006Z,99280.61
2018-03-22T21:03:09.478Z,99262.55
2018-03-22T21:05:37.955Z,99265.90
2018-03-22T21:08:06.429Z,99253.64
2018-03-22T21:10:34.926Z,99249.34
2018-03-22T21:13:03.440Z,99255.09
2018-03-22T21:15:31.932Z,99260.84
2018-03-22T21:18:00.427Z,99263.62
2018-03-22T21:20:28.901Z,99270.30
2018-03-22T21:22:57.400Z,99259.05
2018-03-22T21:25:25.861Z,99272.05
2018-03-22T21:27:54.350Z,99252.59
2018-03-22T21:30:22.826Z,99222.48
2018-03-22T21:32:51.314Z,99180.52
2018-03-22T21:35:19.780Z,99159.10
2018-03-22T21:37:48.269Z,99139.13
2018-03-22T21:40:16.728Z,99131.09
2018-03-22T21:42:45.234Z,99115.84
2018-03-22T21:45:13.714Z,99132.34
2018-03-22T21:47:42.212Z,99126.57
2018-03-22T21:50:10.706Z,99121.49
2018-03-22T21:52:45.961Z,99117.07
2018-03-22T21:55:14.454Z,99132.16
2018-03-22T21:57:42.933Z,99114.22
2018-03-22T22:00:11.480Z,99091.50
2018-03-22T22:02:39.954Z,99063.43
2018-03-22T22:05:08.443Z,99055.20
2018-03-22T22:07:36.914Z,99044.39
2018-03-22T22:10:05.401Z,99037.36
2018-03-22T22:12:34.061Z,99052.88
2018-03-22T22:15:02.413Z,99061.83
2018-03-22T22:17:30.854Z,99068.32
2018-03-22T22:19:59.320Z,99056.07
2018-03-22T22:22:27.816Z,99039.54
2018-03-22T22:24:56.310Z,99009.89
2018-03-22T22:27:24.794Z,98977.20
2018-03-22T22:29:53.238Z,98974.55
2018-03-22T22:32:21.802Z,98970.55
2018-03-22T22:34:50.254Z,98957.45
2018-03-22T22:37:18.758Z,98932.35
2018-03-22T22:39:47.244Z,98933.56
2018-03-22T22:42:15.690Z,98961.04
2018-03-22T22:44:44.190Z,98983.77
2018-03-22T22:47:12.630Z,98981.70
2018-03-22T22:49:41.069Z,98957.84
2018-03-22T22:52:09.559Z,98962.02
2018-03-22T22:54:38.014Z,98964.87
2018-03-22T22:57:06.498Z,98969.12
2018-03-22T22:59:34.978Z,98926.66
2018-03-22T23:02:03.466Z,98917.59
2018-03-22T23:04:32.000Z,98920.41
2018-03-22T23:07:00.450Z,98872.14
2018-03-22T23:09:28.950Z,98873.79
2018-03-22T23:11:57.432Z,98895.80
2018-03-22T23:14:25.910Z,98877.94
2018-03-22T23:16:54.350Z,98857.14
2018-03-22T23:19:22.834Z,98847.05
2018-03-22T23:21:51.297Z,98839.23
2018-03-22T23:24:19.787Z,98819.27
2018-03-22T23:26:48.242Z,98807.56
2018-03-22T23:29:16.694Z,98795.74
2018-03-22T23:31:45.173Z,98819.28
2018-03-22T23:34:13.654Z,98795.76
2018-03-22T23:36:42.097Z,98779.60
2018-03-22T23:39:10.582Z,98774.86
2018-03-22T23:41:39.077Z,98783.01
2018-03-22T23:44:07.532Z,98754.39
2018-03-22T23:46:36.023Z,98756.03
2018-03-22T23:49:04.506Z,98757.18
2018-03-22T23:51:32.962Z,98747.81
2018-03-22T23:54:01.447Z,98716.98
2018-03-22T23:56:30.013Z,98715.22
2018-03-22T23:58:58.450Z,98704.14
